createdAt,value
2023-05-21T00:00:25.550Z,11.69
2023-05-21T00:02:52.507Z,11.68
2023-05-21T00:05:19.468Z,11.64
2023-05-21T00:07:47.302Z,11.59
2023-05-21T00:10:14.147Z,11.56
2023-05-21T00:12:42.005Z,11.51
2023-05-21T00:15:09.514Z,11.49
2023-05-21T00:17:37.184Z,11.46
2023-05-21T00:20:09.125Z,11.44
2023-05-21T00:22:36.443Z,11.43
2023-05-21T00:25:03.855Z,11.43
2023-05-21T00:27:30.743Z,11.43
2023-05-21T00:29:57.920Z,11.44
2023-05-21T00:32:24.811Z,11.44
2023-05-21T00:34:51.693Z,11.46
2023-05-21T00:37:18.944Z,11.45
2023-05-21T00:39:45.723Z,11.46
2023-05-21T00:42:13.274Z,11.45
2023-05-21T00:44:40.381Z,11.43
2023-05-21T00:47:08.282Z,11.43
2023-05-21T00:49:35.112Z,11.42
2023-05-21T00:52:01.951Z,11.43
2023-05-21T00:54:29.563Z,11.37
2023-05-21T00:56:56.723Z,11.36
2023-05-21T00:59:24.329Z,11.35
2023-05-21T01:01:56.139Z,11.35
2023-05-21T01:04:24.241Z,11.38
2023-05-21T01:06:53.463Z,11.36
2023-05-21T01:13:51.137Z,11.36
2023-05-21T01:16:18.174Z,11.36
2023-05-21T01:18:45.467Z,11.39
2023-05-21T01:21:12.556Z,11.40
2023-05-21T01:23:39.393Z,11.41
2023-05-21T01:26:07.480Z,11.41
2023-05-21T01:28:34.779Z,11.42
2023-05-21T01:31:17.345Z,11.43
2023-05-21T01:33:50.336Z,11.43
2023-05-21T01:36:26.878Z,11.46
2023-05-21T01:39:15.088Z,11.50
2023-05-21T01:41:45.291Z,11.53
2023-05-21T01:44:13.188Z,11.55
2023-05-21T01:46:40.204Z,11.59
2023-05-21T01:49:08.976Z,11.59
2023-05-21T01:51:36.642Z,11.59
2023-05-21T01:54:03.611Z,11.59
2023-05-21T01:56:30.390Z,11.56
2023-05-21T01:58:58.681Z,11.55
2023-05-21T02:01:27.311Z,11.57
2023-05-21T02:03:54.274Z,11.55
2023-05-21T02:06:21.101Z,11.55
2023-05-21T02:08:48.492Z,11.54
2023-05-21T02:11:15.362Z,11.52
2023-05-21T02:13:43.168Z,11.56
2023-05-21T02:16:15.078Z,11.57
2023-05-21T02:18:45.122Z,11.57
2023-05-21T02:21:12.115Z,11.54
2023-05-21T02:23:38.897Z,11.52
2023-05-21T02:26:05.765Z,11.54
2023-05-21T02:28:33.133Z,11.51
2023-05-21T02:31:00.688Z,11.51
2023-05-21T02:33:27.514Z,11.50
2023-05-21T02:35:54.319Z,11.47
2023-05-21T02:38:23.347Z,11.46
2023-05-21T02:40:53.652Z,11.46
2023-05-21T02:43:20.650Z,11.44
2023-05-21T02:45:47.857Z,11.41
2023-05-21T02:48:14.709Z,11.41
2023-05-21T02:50:41.566Z,11.41
2023-05-21T02:53:08.411Z,11.37
2023-05-21T02:55:35.781Z,11.36
2023-05-21T02:58:02.841Z,11.37
2023-05-21T03:00:29.907Z,11.31
2023-05-21T03:02:56.813Z,11.26
2023-05-21T03:05:24.529Z,11.24
2023-05-21T03:07:51.478Z,11.25
2023-05-21T03:10:18.420Z,11.25
2023-05-21T03:12:45.250Z,11.16
2023-05-21T03:15:14.943Z,11.11
2023-05-21T03:17:44.831Z,11.14
2023-05-21T03:20:17.234Z,11.15
2023-05-21T03:22:45.063Z,11.17
2023-05-21T03:25:12.930Z,11.18
2023-05-21T03:27:40.056Z,11.15
2023-05-21T03:30:07.408Z,11.14
2023-05-21T03:32:38.021Z,11.14
2023-05-21T03:35:05.416Z,11.11
2023-05-21T03:37:32.343Z,11.13
2023-05-21T03:39:59.154Z,11.15
2023-05-21T03:42:25.981Z,11.13
2023-05-21T03:44:52.722Z,11.11
2023-05-21T03:47:19.535Z,11.11
2023-05-21T03:49:46.346Z,11.13
2023-05-21T03:52:13.190Z,11.18
2023-05-21T03:54:39.971Z,11.20
2023-05-21T03:57:06.876Z,11.22
2023-05-21T03:59:33.721Z,11.23
2023-05-21T04:02:00.553Z,11.22
2023-05-21T04:04:29.572Z,11.24
2023-05-21T04:06:56.508Z,11.26
2023-05-21T04:09:23.401Z,11.32
2023-05-21T04:11:50.144Z,11.34
2023-05-21T04:14:16.943Z,11.37
2023-05-21T04:16:44.304Z,11.40
2023-05-21T04:19:11.249Z,11.42
2023-05-21T04:21:38.081Z,11.44
2023-05-21T04:24:05.041Z,11.46
2023-05-21T04:26:34.156Z,11.49
2023-05-21T04:29:03.991Z,11.52
2023-05-21T04:31:32.389Z,11.62
2023-05-21T04:33:59.642Z,11.69
2023-05-21T04:36:29.084Z,11.78
2023-05-21T04:38:56.011Z,11.84
2023-05-21T04:41:22.895Z,11.81
2023-05-21T04:43:49.771Z,11.79
2023-05-21T04:46:16.762Z,11.80
2023-05-21T04:48:43.534Z,11.85
2023-05-21T04:51:10.334Z,11.88
2023-05-21T04:53:37.166Z,11.92
2023-05-21T04:56:04.118Z,11.97
2023-05-21T04:58:33.009Z,12.04
2023-05-21T05:01:03.320Z,11.78
2023-05-21T05:03:30.466Z,11.94
2023-05-21T05:05:57.394Z,12.33
2023-05-21T05:08:24.150Z,12.62
2023-05-21T05:10:51.002Z,12.99
2023-05-21T05:13:17.783Z,13.31
2023-05-21T05:15:44.541Z,13.54
2023-05-21T05:18:12.115Z,13.82
2023-05-21T05:20:39.005Z,14.13
2023-05-21T05:23:05.977Z,14.44
2023-05-21T05:25:33.023Z,14.69
2023-05-21T05:27:59.754Z,14.87
2023-05-21T05:30:26.613Z,15.06
2023-05-21T05:32:53.415Z,15.09
2023-05-21T05:35:20.313Z,15.08
2023-05-21T05:37:47.117Z,14.96
2023-05-21T05:40:13.922Z,15.15
2023-05-21T05:42:40.805Z,15.31
2023-05-21T05:45:08.201Z,15.44
2023-05-21T05:47:34.965Z,15.46
2023-05-21T05:50:01.772Z,15.42
2023-05-21T05:52:28.667Z,15.26
2023-05-21T05:54:55.519Z,15.18
2023-05-21T05:57:22.336Z,15.12
2023-05-21T05:59:49.123Z,15.17
2023-05-21T06:02:16.496Z,15.43
2023-05-21T06:04:43.737Z,15.70
2023-05-21T06:07:10.881Z,15.73
2023-05-21T06:09:39.039Z,16.11
2023-05-21T06:12:07.181Z,16.18
2023-05-21T06:14:33.979Z,16.33
2023-05-21T06:17:00.775Z,16.56
2023-05-21T06:19:27.618Z,16.67
2023-05-21T06:21:54.508Z,16.75
2023-05-21T06:24:21.439Z,16.81
2023-05-21T06:26:48.182Z,16.93
2023-05-21T06:29:15.565Z,17.10
2023-05-21T06:31:42.655Z,17.29
2023-05-21T06:34:09.534Z,17.43
2023-05-21T06:36:51.925Z,17.49
2023-05-21T06:39:18.745Z,17.39
2023-05-21T06:41:45.632Z,17.40
2023-05-21T06:44:12.477Z,17.38
2023-05-21T06:46:39.244Z,17.39
2023-05-21T06:49:07.248Z,17.29
2023-05-21T06:51:34.252Z,17.24
2023-05-21T06:54:01.214Z,17.23
2023-05-21T06:56:27.968Z,17.22
2023-05-21T06:58:54.753Z,17.38
2023-05-21T07:01:22.615Z,17.60
2023-05-21T07:03:49.658Z,17.58
2023-05-21T07:06:17.005Z,17.79
2023-05-21T07:08:43.749Z,17.99
2023-05-21T07:11:10.541Z,18.07
2023-05-21T07:13:37.526Z,18.24
2023-05-21T07:16:04.531Z,18.30
2023-05-21T07:18:31.616Z,18.36
2023-05-21T07:20:58.586Z,18.40
2023-05-21T07:23:25.412Z,18.41
2023-05-21T07:25:52.223Z,18.33
2023-05-21T07:28:19.060Z,18.27
2023-05-21T07:30:46.093Z,18.26
2023-05-21T07:33:12.948Z,18.26
2023-05-21T07:35:39.715Z,18.35
2023-05-21T07:38:06.607Z,18.35
2023-05-21T07:40:33.472Z,18.36
2023-05-21T07:43:01.541Z,18.31
2023-05-21T07:45:28.494Z,18.40
2023-05-21T07:47:55.322Z,18.49
2023-05-21T07:50:22.516Z,18.46
2023-05-21T07:52:49.385Z,18.54
2023-05-21T07:55:16.246Z,18.56
2023-05-21T07:57:43.017Z,18.50
2023-05-21T08:00:10.877Z,18.56
2023-05-21T08:02:37.670Z,18.64
2023-05-21T08:05:04.826Z,18.56
2023-05-21T08:07:32.725Z,18.56
2023-05-21T08:10:00.236Z,18.63
2023-05-21T08:12:28.472Z,18.87
2023-05-21T08:14:55.225Z,19.08
2023-05-21T08:17:22.066Z,19.23
2023-05-21T08:19:48.995Z,19.29
2023-05-21T08:22:15.953Z,19.35
2023-05-21T08:24:42.728Z,19.55
2023-05-21T08:27:10.270Z,19.66
2023-05-21T08:29:37.234Z,19.71
2023-05-21T08:32:04.373Z,19.78
2023-05-21T08:34:31.854Z,19.85
2023-05-21T08:36:58.635Z,19.88
2023-05-21T08:39:25.345Z,19.89
2023-05-21T08:42:04.848Z,19.99
2023-05-21T08:44:34.386Z,20.34
2023-05-21T08:47:03.054Z,20.65
2023-05-21T08:49:34.908Z,20.84
2023-05-21T08:52:02.463Z,21.06
2023-05-21T08:54:29.285Z,21.27
2023-05-21T08:56:58.141Z,21.01
2023-05-21T08:59:25.303Z,21.24
2023-05-21T09:01:52.913Z,21.46
2023-05-21T09:04:21.875Z,21.62
2023-05-21T09:06:49.411Z,21.35
2023-05-21T09:09:34.258Z,20.90
2023-05-21T09:12:01.130Z,20.87
2023-05-21T09:14:29.041Z,20.88
2023-05-21T09:16:55.869Z,20.94
2023-05-21T09:19:23.282Z,21.11
2023-05-21T09:21:53.167Z,21.07
2023-05-21T09:24:25.209Z,21.33
2023-05-21T09:26:52.646Z,21.10
2023-05-21T09:29:19.553Z,20.96
2023-05-21T09:31:46.592Z,21.45
2023-05-21T09:34:16.332Z,21.79
2023-05-21T09:36:44.176Z,22.00
2023-05-21T09:39:16.482Z,21.66
2023-05-21T09:41:43.388Z,21.54
2023-05-21T09:44:10.879Z,21.71
2023-05-21T09:46:39.777Z,21.97
2023-05-21T09:49:06.767Z,21.76
2023-05-21T09:51:33.750Z,21.52
2023-05-21T09:54:01.290Z,21.57
2023-05-21T09:56:32.048Z,21.81
2023-05-21T09:59:02.095Z,22.08
2023-05-21T10:01:32.347Z,22.33
2023-05-21T10:04:00.747Z,22.73
2023-05-21T10:06:30.191Z,22.94
2023-05-21T10:08:59.455Z,23.18
2023-05-21T10:11:30.795Z,22.62
2023-05-21T10:14:09.296Z,22.56
2023-05-21T10:16:37.500Z,22.64
2023-05-21T10:19:06.085Z,22.74
2023-05-21T10:21:35.955Z,22.95
2023-05-21T10:24:04.414Z,23.11
2023-05-21T10:26:31.583Z,23.19
2023-05-21T10:29:00.446Z,23.25
2023-05-21T10:31:28.690Z,23.46
2023-05-21T10:33:56.362Z,23.55
2023-05-21T10:36:24.795Z,23.07
2023-05-21T10:38:51.619Z,23.53
2023-05-21T10:41:22.697Z,23.34
2023-05-21T10:44:14.183Z,23.11
2023-05-21T10:46:40.992Z,23.12
2023-05-21T10:49:34.531Z,23.08
2023-05-21T10:52:39.680Z,23.18
2023-05-21T10:55:37.654Z,22.96
2023-05-21T10:58:48.731Z,23.42
2023-05-21T11:01:18.908Z,23.33
2023-05-21T11:03:48.795Z,23.29
2023-05-21T11:06:26.813Z,23.65
2023-05-21T11:08:55.621Z,23.92
2023-05-21T11:11:44.338Z,23.70
2023-05-21T11:14:35.201Z,23.47
2023-05-21T11:17:10.522Z,23.15
2023-05-21T11:19:39.716Z,23.04
2023-05-21T11:22:20.668Z,23.25
2023-05-21T11:24:49.358Z,23.04
2023-05-21T11:27:37.502Z,22.55
2023-05-21T11:30:17.805Z,22.39
2023-05-21T11:33:12.452Z,22.42
2023-05-21T11:35:58.280Z,22.79
2023-05-21T11:38:29.462Z,22.76
2023-05-21T11:41:03.689Z,22.73
2023-05-21T11:43:31.107Z,22.99
2023-05-21T11:45:58.903Z,23.34
2023-05-21T11:48:28.089Z,23.46
2023-05-21T11:50:57.630Z,23.23
2023-05-21T11:53:24.489Z,23.11
2023-05-21T11:55:57.600Z,22.90
2023-05-21T11:58:24.648Z,23.00
2023-05-21T12:00:51.968Z,23.14
2023-05-21T12:03:18.838Z,22.78
2023-05-21T12:05:49.424Z,22.62
2023-05-21T12:08:27.200Z,22.33
2023-05-21T12:11:01.913Z,22.18
2023-05-21T12:13:28.883Z,22.04
2023-05-21T12:15:56.199Z,21.83
2023-05-21T12:18:23.067Z,21.77
2023-05-21T12:20:52.276Z,21.68
2023-05-21T12:23:30.481Z,21.58
2023-05-21T12:25:57.570Z,21.48
2023-05-21T12:28:24.955Z,21.40
2023-05-21T12:30:51.770Z,21.40
2023-05-21T12:33:19.417Z,21.61
2023-05-21T12:35:50.432Z,21.94
2023-05-21T12:38:17.403Z,22.23
2023-05-21T12:40:45.872Z,21.91
2023-05-21T12:43:13.273Z,21.92
2023-05-21T12:45:40.564Z,21.93
2023-05-21T12:48:07.777Z,21.85
2023-05-21T12:50:36.157Z,21.63
2023-05-21T12:53:03.355Z,21.54
2023-05-21T12:55:31.730Z,21.41
2023-05-21T12:58:05.971Z,21.27
2023-05-21T13:00:33.445Z,21.16
2023-05-21T13:03:01.971Z,21.08
2023-05-21T13:05:28.902Z,21.12
2023-05-21T13:07:55.732Z,21.34
2023-05-21T13:10:22.596Z,21.46
2023-05-21T13:12:49.482Z,21.56
2023-05-21T13:15:16.537Z,21.76
2023-05-21T13:17:43.395Z,21.88
2023-05-21T13:20:15.550Z,21.76
2023-05-21T13:22:46.810Z,21.72
2023-05-21T13:25:32.948Z,21.86
2023-05-21T13:28:04.886Z,21.80
2023-05-21T13:30:33.433Z,21.99
2023-05-21T13:33:00.424Z,21.80
2023-05-21T13:35:27.283Z,21.65
2023-05-21T13:37:54.356Z,21.52
2023-05-21T13:40:22.239Z,21.59
2023-05-21T13:42:49.631Z,21.47
2023-05-21T13:45:19.373Z,21.52
2023-05-21T13:47:47.175Z,21.54
2023-05-21T13:50:14.385Z,21.63
2023-05-21T13:52:41.300Z,21.58
2023-05-21T13:55:09.582Z,21.44
2023-05-21T13:57:36.642Z,21.30
2023-05-21T14:00:04.192Z,21.26
2023-05-21T14:02:31.173Z,21.15
2023-05-21T14:04:57.975Z,21.23
2023-05-21T14:07:24.805Z,21.33
2023-05-21T14:09:52.471Z,21.36
2023-05-21T14:12:19.249Z,21.22
2023-05-21T14:14:46.202Z,21.36
2023-05-21T14:17:13.050Z,21.44
2023-05-21T14:19:39.873Z,21.38
2023-05-21T14:22:06.784Z,21.22
2023-05-21T14:24:33.594Z,21.07
2023-05-21T14:27:00.808Z,21.05
2023-05-21T14:29:27.671Z,21.12
2023-05-21T14:31:54.540Z,21.22
2023-05-21T14:34:21.340Z,21.25
2023-05-21T14:36:48.067Z,21.22
2023-05-21T14:39:15.003Z,21.15
2023-05-21T14:41:41.838Z,21.02
2023-05-21T14:44:08.766Z,20.90
2023-05-21T14:46:36.897Z,20.83
2023-05-21T14:49:03.955Z,20.73
2023-05-21T14:51:31.696Z,20.67
2023-05-21T14:53:58.678Z,20.60
2023-05-21T14:56:28.379Z,20.47
2023-05-21T14:58:55.700Z,20.37
2023-05-21T15:01:22.719Z,20.25
2023-05-21T15:03:49.860Z,20.20
2023-05-21T15:06:16.884Z,20.13
2023-05-21T15:08:43.758Z,20.09
2023-05-21T15:11:10.633Z,20.02
2023-05-21T15:13:38.337Z,20.01
2023-05-21T15:16:05.482Z,19.97
2023-05-21T15:18:32.237Z,19.99
2023-05-21T15:20:59.371Z,20.11
2023-05-21T15:23:26.227Z,20.08
2023-05-21T15:25:53.070Z,20.03
2023-05-21T15:28:20.084Z,19.98
2023-05-21T15:30:46.918Z,20.03
2023-05-21T15:33:13.875Z,19.97
2023-05-21T15:35:41.256Z,19.95
2023-05-21T15:38:08.346Z,19.94
2023-05-21T15:40:35.197Z,19.92
2023-05-21T15:43:01.967Z,19.93
2023-05-21T15:45:28.736Z,19.96
2023-05-21T15:47:55.627Z,19.97
2023-05-21T15:50:22.484Z,20.03
2023-05-21T15:52:51.578Z,20.05
2023-05-21T15:55:20.038Z,20.14
2023-05-21T15:57:46.852Z,20.25
2023-05-21T16:00:14.080Z,20.45
2023-05-21T16:02:42.017Z,20.45
2023-05-21T16:05:09.446Z,20.35
2023-05-21T16:07:37.951Z,20.30
2023-05-21T16:10:05.972Z,20.24
2023-05-21T16:12:32.775Z,20.21
2023-05-21T16:14:59.739Z,20.18
2023-05-21T16:17:26.782Z,20.14
2023-05-21T16:19:53.541Z,20.09
2023-05-21T16:22:24.061Z,20.09
2023-05-21T16:24:50.895Z,19.99
2023-05-21T16:27:17.735Z,19.87
2023-05-21T16:29:44.746Z,19.83
2023-05-21T16:32:13.998Z,19.95
2023-05-21T16:34:41.283Z,19.88
2023-05-21T16:37:11.417Z,19.84
2023-05-21T16:39:38.305Z,19.81
2023-05-21T16:42:05.255Z,19.76
2023-05-21T16:44:32.468Z,19.80
2023-05-21T16:47:00.061Z,19.81
2023-05-21T16:49:27.685Z,19.75
2023-05-21T16:51:54.517Z,19.69
2023-05-21T16:54:21.765Z,19.61
2023-05-21T16:56:48.642Z,19.51
2023-05-21T16:59:15.361Z,19.46
2023-05-21T17:01:42.898Z,19.39
2023-05-21T17:04:09.744Z,19.33
2023-05-21T17:06:36.652Z,19.32
2023-05-21T17:09:03.889Z,19.27
2023-05-21T17:11:31.289Z,19.23
2023-05-21T17:13:58.184Z,19.19
2023-05-21T17:16:25.161Z,19.14
2023-05-21T17:18:52.254Z,19.12
2023-05-21T17:21:19.436Z,19.07
2023-05-21T17:23:46.249Z,19.00
2023-05-21T17:26:14.056Z,18.89
2023-05-21T17:28:40.963Z,18.76
2023-05-21T17:31:09.700Z,18.63
2023-05-21T17:33:37.662Z,18.54
2023-05-21T17:36:04.679Z,18.39
2023-05-21T17:38:31.536Z,18.31
2023-05-21T17:40:59.473Z,18.25
2023-05-21T17:43:27.803Z,18.17
2023-05-21T17:45:54.668Z,18.13
2023-05-21T17:48:21.544Z,18.11
2023-05-21T17:50:48.459Z,18.07
2023-05-21T17:53:16.047Z,18.04
2023-05-21T17:55:42.864Z,18.03
2023-05-21T17:58:10.199Z,18.02
2023-05-21T18:00:37.083Z,17.96
2023-05-21T18:03:04.460Z,17.94
2023-05-21T18:05:31.320Z,17.87
2023-05-21T18:07:58.922Z,17.76
2023-05-21T18:10:25.755Z,17.62
2023-05-21T18:12:52.486Z,17.56
2023-05-21T18:15:19.391Z,17.50
2023-05-21T18:17:47.194Z,17.38
2023-05-21T18:20:14.115Z,17.29
2023-05-21T18:22:40.891Z,17.21
2023-05-21T18:25:08.371Z,17.12
2023-05-21T18:27:35.118Z,17.01
2023-05-21T18:30:03.463Z,16.86
2023-05-21T18:32:30.424Z,16.77
2023-05-21T18:34:58.609Z,16.71
2023-05-21T18:37:27.245Z,16.60
2023-05-21T18:39:54.102Z,16.51
2023-05-21T18:42:20.880Z,16.44
2023-05-21T18:44:50.695Z,16.36
2023-05-21T18:47:17.552Z,16.27
2023-05-21T18:49:44.394Z,16.19
2023-05-21T18:52:11.148Z,16.10
2023-05-21T18:54:37.940Z,16.01
2023-05-21T18:57:04.868Z,15.93
2023-05-21T18:59:31.682Z,15.82
2023-05-21T19:01:58.561Z,15.72
2023-05-21T19:04:25.488Z,15.64
2023-05-21T19:06:52.231Z,15.57
2023-05-21T19:09:18.983Z,15.54
2023-05-21T19:11:46.047Z,15.47
2023-05-21T19:14:12.875Z,15.39
2023-05-21T19:16:39.702Z,15.34
2023-05-21T19:19:06.644Z,15.26
2023-05-21T19:21:33.692Z,15.20
2023-05-21T19:24:01.062Z,15.13
2023-05-21T19:26:28.180Z,15.09
2023-05-21T19:28:55.560Z,15.04
2023-05-21T19:31:23.410Z,15.01
2023-05-21T19:33:50.950Z,14.99
2023-05-21T19:36:18.638Z,14.95
2023-05-21T19:38:50.192Z,14.93
2023-05-21T19:41:18.649Z,14.89
2023-05-21T19:43:46.097Z,14.82
2023-05-21T19:46:13.361Z,14.79
2023-05-21T19:48:40.871Z,14.72
2023-05-21T19:51:07.661Z,14.70
2023-05-21T19:53:35.041Z,14.65
2023-05-21T19:56:01.931Z,14.60
2023-05-21T19:58:30.470Z,14.55
2023-05-21T20:00:59.433Z,14.46
2023-05-21T20:03:27.151Z,14.44
2023-05-21T20:05:54.402Z,14.34
2023-05-21T20:08:21.638Z,14.31
2023-05-21T20:10:51.443Z,14.27
2023-05-21T20:13:19.027Z,14.23
2023-05-21T20:15:45.828Z,14.19
2023-05-21T20:18:13.095Z,14.10
2023-05-21T20:20:41.403Z,14.04
2023-05-21T20:23:08.908Z,14.01
2023-05-21T20:25:35.906Z,13.98
2023-05-21T20:28:03.509Z,13.95
2023-05-21T20:30:34.685Z,13.95
2023-05-21T20:33:02.836Z,13.94
2023-05-21T20:35:30.519Z,13.88
2023-05-21T20:37:57.468Z,13.85
2023-05-21T20:40:24.349Z,13.85
2023-05-21T20:42:53.603Z,13.79
2023-05-21T20:45:21.281Z,13.75
2023-05-21T20:47:48.305Z,13.71
2023-05-21T20:50:17.778Z,13.67
2023-05-21T20:52:47.071Z,13.64
2023-05-21T20:55:14.789Z,13.63
2023-05-21T20:57:42.297Z,13.61
2023-05-21T21:00:11.993Z,13.56
2023-05-21T21:02:39.315Z,13.52
2023-05-21T21:05:06.799Z,13.49
2023-05-21T21:07:34.390Z,13.47
2023-05-21T21:10:01.588Z,13.45
2023-05-21T21:12:28.702Z,13.39
2023-05-21T21:14:55.848Z,13.33
2023-05-21T21:17:23.238Z,13.30
2023-05-21T21:19:50.166Z,13.28
2023-05-21T21:22:18.400Z,13.23
2023-05-21T21:24:45.856Z,13.22
2023-05-21T21:27:12.779Z,13.22
2023-05-21T21:29:39.845Z,13.21
2023-05-21T21:32:07.023Z,13.21
2023-05-21T21:34:33.838Z,13.13
2023-05-21T21:37:00.623Z,13.07
2023-05-21T21:39:27.384Z,13.08
2023-05-21T21:41:54.260Z,13.03
2023-05-21T21:44:21.323Z,13.02
2023-05-21T21:46:48.182Z,13.00
2023-05-21T21:49:17.472Z,12.94
2023-05-21T21:51:44.895Z,12.91
2023-05-21T21:54:12.119Z,12.89
2023-05-21T21:56:38.945Z,12.82
2023-05-21T21:59:05.802Z,12.78
2023-05-21T22:01:32.834Z,12.75
2023-05-21T22:03:59.810Z,12.73
2023-05-21T22:06:27.811Z,12.71
2023-05-21T22:08:55.099Z,12.68
2023-05-21T22:11:22.137Z,12.64
2023-05-21T22:13:49.180Z,12.61
2023-05-21T22:16:16.214Z,12.63
2023-05-21T22:18:43.084Z,12.63
2023-05-21T22:21:10.930Z,12.62
2023-05-21T22:23:38.607Z,12.59
2023-05-21T22:26:06.023Z,12.56
2023-05-21T22:28:33.024Z,12.54
2023-05-21T22:30:59.870Z,12.55
2023-05-21T22:33:26.996Z,12.52
2023-05-21T22:35:54.628Z,12.53
2023-05-21T22:38:22.162Z,12.52
2023-05-21T22:40:48.983Z,12.54
2023-05-21T22:43:15.884Z,12.51
2023-05-21T22:45:42.711Z,12.44
2023-05-21T22:48:10.091Z,12.41
2023-05-21T22:50:38.791Z,12.43
2023-05-21T22:53:06.820Z,12.44
2023-05-21T22:55:33.632Z,12.41
2023-05-21T22:58:00.420Z,12.41
2023-05-21T23:00:27.751Z,12.38
2023-05-21T23:02:55.047Z,12.34
2023-05-21T23:05:22.387Z,12.33
2023-05-21T23:07:49.615Z,12.32
2023-05-21T23:10:16.481Z,12.31
2023-05-21T23:12:43.289Z,12.31
2023-05-21T23:15:10.906Z,12.32
2023-05-21T23:17:38.640Z,12.30
2023-05-21T23:20:07.514Z,12.30
2023-05-21T23:22:35.481Z,12.29
2023-05-21T23:25:02.736Z,12.30
2023-05-21T23:27:29.603Z,12.30
2023-05-21T23:29:56.600Z,12.28
2023-05-21T23:32:23.835Z,12.23
2023-05-21T23:34:50.901Z,12.22
2023-05-21T23:37:17.805Z,12.22
2023-05-21T23:39:48.375Z,12.15
2023-05-21T23:42:18.390Z,12.10
2023-05-21T23:44:45.224Z,12.08
2023-05-21T23:47:12.369Z,12.06
2023-05-21T23:49:39.532Z,12.03
2023-05-21T23:52:06.837Z,12.03
2023-05-21T23:54:33.747Z,12.01
2023-05-21T23:57:01.050Z,12.01
2023-05-21T23:59:27.889Z,12.01
